Káhira, Egypt

19:52 EET 24. Srpen 2016 (GMT +0200)
Cairo International | | Change Station

Výška 243 ft 30.11 °N, 31.41 °E | Updated 22 minutes ago

Clear
Jasno
88 °F
Pocit jako 94 °F
S
17
Vítr proměnlivý Vítr od severní

Dnes
Vysoké -- | Nízké -- °F
--% Možnost srážek
Včera
Vysoké -- | Nízké -- °F
Precip. -- inčů
Tlak 29.80 inčů
Viditelnost -9999.0 mílí
Zataženo
Tepelný index 94 °F
Rosný bod 72 °F
Vlhkost 58%
Dešťové srážky 0.00 inčů
Sněhová pokrývka Není k dispozici
5:26 AM 6:25 PM
Ubývající měsíc, 55% visible
METAR HECA 241730Z 36015KT CAVOK 31/22 Q1009 NOSIG
Tlak 29.80 inčů
Viditelnost -9999.0 mílí
Zataženo
Tepelný index 94 °F
Rosný bod 72 °F
Vlhkost 58%
Dešťové srážky 0.00 inčů
Sněhová pokrývka Není k dispozici
5:26 AM 6:25 PM
Ubývající měsíc, 55% visible
METAR HECA 241730Z 36015KT CAVOK 31/22 Q1009 NOSIG

10-Day Weather Forecast

No radar image for this location.
×

Almanac

Astronomie

Aug. 24, 2016 Východ Západ
Skutečný čas
Občanský soumrak
Námořní soumrak
Astronomický soumrak
Měsíc
Délka denního světla
Délka dne
Tomorrow will be .
, % of the Moon is Illuminated

Dnešní extrémy

Nejvyšší hodnoty ve státě Nejnižší hodnoty ve státě

Community

WunderPhotos

Upload Photos

1,934,661 snímků staženo!

WunderBlog® & News

Nearby

Kvalita ovzduší

  Kvalita ovzduší Index kvality ovzduší Polutant
Not available.

Výška sněhu

Station Hloubka Nadmořská výška

Seizmická činnost

Město Distance Mag. Čas & datum
Minimální zobrazený rozsah je 2.5.

Pobřežní teplota vody

Lokalita Teplota

Stations

Poblíž povětrnostní stanice

Lokace stanice Tepl. Ochlazování větrem Rosný bod Vlhkost Vítr Precip. Výška Čas hlášení Typ